TimeCDT,TemperatureF,Dew PointF,Humidity,Sea Level PressureIn,VisibilityMPH,Wind Direction,Wind SpeedMPH,Gust SpeedMPH,PrecipitationIn,Events,Conditions,WindDirDegrees,DateUTC
12:53 AM,50.0,41.0,71,30.09,-9999.0,North,4.6,-,N/A,,Unknown,360,2012-10-28 05:53:00
1:53 AM,48.9,39.9,71,30.09,-9999.0,North,3.5,-,N/A,,Unknown,350,2012-10-28 06:53:00
2:53 AM,48.0,39.9,74,30.07,-9999.0,North,4.6,-,N/A,,Unknown,350,2012-10-28 07:53:00
3:53 AM,46.9,39.0,74,30.08,-9999.0,NNW,6.9,-,N/A,,Unknown,340,2012-10-28 08:53:00
4:53 AM,46.0,39.0,76,30.09,-9999.0,Variable,3.5,-,N/A,,Unknown,0,2012-10-28 09:53:00
5:53 AM,45.0,39.0,80,30.10,-9999.0,NNW,5.8,-,N/A,,Unknown,340,2012-10-28 10:53:00
6:53 AM,44.1,37.9,79,30.11,-9999.0,North,5.8,-,N/A,,Unknown,350,2012-10-28 11:53:00
7:53 AM,44.1,39.0,82,30.13,-9999.0,North,4.6,-,N/A,,Unknown,350,2012-10-28 12:53:00
8:53 AM,48.9,39.0,69,30.14,-9999.0,North,6.9,-,N/A,,Unknown,10,2012-10-28 13:53:00
9:53 AM,54.0,37.9,55,30.14,-9999.0,North,9.2,-,N/A,,Unknown,350,2012-10-28 14:53:00
10:53 AM,57.0,35.1,44,30.14,-9999.0,North,10.4,18.4,N/A,,Unknown,10,2012-10-28 15:53:00
11:53 AM,60.1,32.0,35,30.12,-9999.0,North,8.1,21.9,N/A,,Unknown,350,2012-10-28 16:53:00
12:53 PM,62.1,30.9,31,30.10,-9999.0,NNW,9.2,19.6,N/A,,Unknown,330,2012-10-28 17:53:00
1:53 PM,63.0,30.9,30,30.07,-9999.0,North,9.2,21.9,N/A,,Unknown,350,2012-10-28 18:53:00
2:53 PM,64.9,33.1,31,30.06,-9999.0,North,9.2,19.6,N/A,,Unknown,350,2012-10-28 19:53:00
3:53 PM,66.0,32.0,28,30.05,-9999.0,Variable,6.9,-,N/A,,Unknown,0,2012-10-28 20:53:00
4:53 PM,64.9,32.0,29,30.06,-9999.0,Variable,6.9,23.0,N/A,,Unknown,0,2012-10-28 21:53:00
5:53 PM,63.0,33.1,33,30.07,-9999.0,Variable,5.8,-,N/A,,Unknown,0,2012-10-28 22:53:00
6:53 PM,57.9,36.0,44,30.10,-9999.0,North,3.5,-,N/A,,Unknown,350,2012-10-28 23:53:00
7:53 PM,55.9,36.0,47,30.12,-9999.0,NNW,3.5,-,N/A,,Unknown,340,2012-10-29 00:53:00
8:53 PM,54.0,37.0,53,30.14,-9999.0,North,4.6,-,N/A,,Unknown,360,2012-10-29 01:53:00
9:53 PM,52.0,37.9,59,30.16,-9999.0,North,5.8,-,N/A,,Unknown,360,2012-10-29 02:53:00
10:53 PM,51.1,37.0,59,30.17,-9999.0,North,4.6,-,N/A,,Unknown,360,2012-10-29 03:53:00
11:53 PM,51.1,37.0,59,30.17,-9999.0,North,5.8,-,N/A,,Unknown,360,2012-10-29 04:53:00